Time;durP1;ratioP1;P1;durP2;ratioP2;P2;SDS_P1;SDS_P2;PMS_P1;PMS_P2;Temp;Humidity;BMP_temperature;BMP_pressure;BME280_temperature;BME280_humidity;BME280_pressure;Samples;Min_cycle;Max_cycle;Signal;HPM_P1;HPM_P2
2022/09/18 00:00:13;;;;;;;14.25;1.50;;;;;;;7.67;100.00;101012.00;13047004;22;20014;-87
2022/09/18 00:05:14;;;;;;;15.20;1.55;;;;;;;8.10;100.00;101071.25;13044698;22;20098;-86
2022/09/18 00:10:14;;;;;;;15.98;2.15;;;;;;;8.78;100.00;101198.19;13047134;22;20014;-87
2022/09/18 00:15:15;;;;;;;13.93;1.60;;;;;;;8.69;100.00;101167.50;13049037;22;20014;-92
2022/09/18 00:20:15;;;;;;;5.20;1.13;;;;;;;8.04;100.00;101061.22;13020036;22;20010;-86
2022/09/18 00:25:16;;;;;;;9.15;1.30;;;;;;;8.25;100.00;101079.06;13023600;22;20322;-92
2022/09/18 00:30:17;;;;;;;21.15;2.63;;;;;;;7.42;100.00;100960.91;13049831;22;20033;-92
2022/09/18 00:35:17;;;;;;;6.32;1.23;;;;;;;8.12;100.00;101085.56;13050154;22;20003;-92
2022/09/18 00:40:18;;;;;;;10.18;2.50;;;;;;;7.63;100.00;100961.47;13021019;22;20006;-86
2022/09/18 00:45:18;;;;;;;11.65;1.20;;;;;;;8.69;100.00;101137.31;13045565;22;20003;-87
2022/09/18 00:50:20;;;;;;;11.63;1.60;;;;;;;8.69;100.00;101127.16;13020982;22;20514;-86
2022/09/18 00:55:27;;;;;;;12.27;1.10;;;;;;;8.42;100.00;101090.25;13044339;22;20128;-86
2022/09/18 01:00:28;;;;;;;14.25;1.95;;;;;;;7.85;100.00;101003.72;13044984;22;20452;-86
2022/09/18 01:05:50;;;;;;;10.82;1.15;;;;;;;9.01;100.00;101176.28;13044858;22;20010;-86
2022/09/18 01:11:09;;;;;;;10.10;1.48;;;;;;;8.98;100.00;101175.91;13070756;22;20447;-86
2022/09/18 01:16:24;;;;;;;7.72;1.40;;;;;;;7.95;100.00;101026.97;13070646;22;20014;-87
2022/09/18 01:21:34;;;;;;;10.75;1.88;;;;;;;8.97;100.00;101179.72;13046607;22;20005;-86
2022/09/18 01:26:50;;;;;;;9.32;2.67;;;;;;;8.54;100.00;101118.53;13075543;22;20328;-92
2022/09/18 01:31:50;;;;;;;8.20;1.45;;;;;;;8.63;100.00;101111.63;13052286;22;20018;-93
2022/09/18 01:36:53;;;;;;;10.82;1.65;;;;;;;8.32;100.00;101099.00;13075588;22;20089;-87
2022/09/18 01:41:54;;;;;;;12.57;2.90;;;;;;;8.48;100.00;101084.63;13026133;22;20051;-92
2022/09/18 01:46:56;;;;;;;9.77;1.23;;;;;;;7.93;100.00;101023.63;13037682;22;20093;-93
2022/09/18 01:52:01;;;;;;;8.73;1.35;;;;;;;7.88;100.00;101025.16;13091481;22;20041;-86
2022/09/18 01:57:21;;;;;;;9.68;1.70;;;;;;;8.19;100.00;101086.31;13113045;22;20029;-86
2022/09/18 02:02:31;;;;;;;6.65;2.47;;;;;;;8.04;100.00;101066.69;13112414;22;19998;-86
2022/09/18 02:07:37;;;;;;;7.78;1.90;;;;;;;7.85;100.00;101025.66;13114458;22;20332;-86
2022/09/18 02:12:38;;;;;;;15.52;2.20;;;;;;;8.08;100.00;101074.25;13113670;22;20017;-86
2022/09/18 02:17:55;;;;;;;8.65;1.30;;;;;;;7.94;100.00;101060.94;13085780;22;20494;-87
2022/09/18 02:22:58;;;;;;;11.07;1.42;;;;;;;7.40;100.00;100946.59;13113685;22;20022;-92
2022/09/18 02:27:58;;;;;;;14.27;2.53;;;;;;;8.56;100.00;101130.13;13117796;22;20009;-93
2022/09/18 02:32:59;;;;;;;3.97;1.10;;;;;;;7.35;100.00;100915.47;13090159;22;20073;-93
2022/09/18 02:38:16;;;;;;;7.72;1.25;;;;;;;8.18;100.00;101048.97;13115931;22;20007;-93
2022/09/18 02:43:47;;;;;;;8.50;1.20;;;;;;;8.08;100.00;101011.19;13117729;22;20022;-92
2022/09/18 02:49:08;;;;;;;12.88;1.50;;;;;;;8.84;100.00;101134.94;13119592;22;20026;-93
2022/09/18 02:54:24;;;;;;;7.88;1.27;;;;;;;8.62;100.00;101103.63;13141498;22;20152;-92
2022/09/18 02:59:34;;;;;;;16.17;2.17;;;;;;;8.47;100.00;101060.16;13141063;22;20014;-86
2022/09/18 03:04:35;;;;;;;9.68;1.52;;;;;;;8.94;100.00;101126.13;13112361;22;20005;-87
2022/09/18 03:09:36;;;;;;;14.50;2.08;;;;;;;8.37;100.00;101059.88;13110984;22;20014;-86
2022/09/18 03:14:36;;;;;;;9.75;1.90;;;;;;;7.59;100.00;100932.84;13087182;22;20014;-93
2022/09/18 03:19:37;;;;;;;9.73;1.35;;;;;;;7.59;100.00;100954.78;13089900;22;20432;-93
2022/09/18 03:24:37;;;;;;;11.30;1.45;;;;;;;8.47;100.00;101082.13;12987800;22;19994;-93
2022/09/18 03:29:38;;;;;;;11.07;1.45;;;;;;;7.59;100.00;100930.13;13114790;22;20076;-93
2022/09/18 03:34:38;;;;;;;15.73;1.73;;;;;;;8.55;100.00;101081.78;13090562;22;20454;-93
2022/09/18 03:39:39;;;;;;;9.20;2.15;;;;;;;8.31;100.00;101045.22;13111331;22;20002;-87
2022/09/18 03:44:39;;;;;;;11.25;1.70;;;;;;;7.84;100.00;100958.19;12982059;22;20006;-89
2022/09/18 03:49:40;;;;;;;14.75;1.85;;;;;;;7.70;100.00;100953.13;13085813;22;20026;-93
2022/09/18 03:54:41;;;;;;;11.68;1.60;;;;;;;8.14;100.00;100983.88;12986157;22;20010;-93
2022/09/18 03:59:41;;;;;;;10.73;2.63;;;;;;;7.60;100.00;100890.66;13089737;22;20010;-93
2022/09/18 04:04:42;;;;;;;13.98;1.65;;;;;;;7.97;100.00;100950.81;13088633;22;20006;-93
2022/09/18 04:09:42;;;;;;;14.02;2.17;;;;;;;7.74;100.00;100913.22;13113496;22;20428;-92
2022/09/18 04:14:43;;;;;;;8.90;1.40;;;;;;;7.17;100.00;100842.41;13088845;22;20072;-93
2022/09/18 04:19:43;;;;;;;11.65;1.60;;;;;;;7.84;100.00;100922.53;13137271;22;20006;-87
2022/09/18 04:24:45;;;;;;;10.10;1.20;;;;;;;7.52;100.00;100907.44;12982786;22;20055;-93
2022/09/18 04:29:46;;;;;;;13.00;1.75;;;;;;;8.87;100.00;101076.00;13088600;22;20014;-87
2022/09/18 04:34:47;;;;;;;7.35;1.30;;;;;;;8.04;100.00;101001.75;13110234;22;20002;-87
2022/09/18 04:39:47;;;;;;;10.80;1.60;;;;;;;8.09;100.00;100962.66;13111658;22;20007;-87
2022/09/18 04:44:48;;;;;;;12.77;2.25;;;;;;;7.92;100.00;100926.88;13085193;22;20014;-87
2022/09/18 04:49:48;;;;;;;7.40;1.30;;;;;;;8.58;100.00;101009.13;13112208;22;20507;-93
2022/09/18 04:54:49;;;;;;;7.25;1.10;;;;;;;8.95;100.00;101056.41;13113805;22;20371;-93
2022/09/18 04:59:50;;;;;;;13.73;1.42;;;;;;;8.04;100.00;100924.13;13117821;22;20026;-93
2022/09/18 05:04:50;;;;;;;11.02;1.20;;;;;;;7.97;100.00;100880.38;12987923;22;20002;-93
2022/09/18 05:09:51;;;;;;;8.25;1.15;;;;;;;7.39;100.00;100797.00;13118429;22;20357;-93
2022/09/18 05:14:51;;;;;;;13.10;1.92;;;;;;;7.80;100.00;100850.09;13120112;22;19999;-93
2022/09/18 05:19:52;;;;;;;12.85;1.70;;;;;;;8.66;100.00;100992.28;13118307;22;20059;-93
2022/09/18 05:24:52;;;;;;;9.18;1.60;;;;;;;8.92;100.00;101048.63;13118959;22;20059;-91
2022/09/18 05:29:53;;;;;;;13.82;1.48;;;;;;;8.17;100.00;100934.88;13093231;22;20029;-92
2022/09/18 05:34:53;;;;;;;8.10;1.05;;;;;;;7.91;100.00;100842.94;12990674;22;20022;-92
2022/09/18 05:39:55;;;;;;;5.38;0.98;;;;;;;8.39;100.00;100961.72;13143352;22;20026;-92
2022/09/18 05:44:56;;;;;;;7.65;1.23;;;;;;;7.78;100.00;100837.69;13118180;22;20171;-93
2022/09/18 05:49:56;;;;;;;4.88;1.42;;;;;;;7.71;100.00;100856.13;13039534;22;20014;-92
2022/09/18 05:54:57;;;;;;;7.20;1.02;;;;;;;8.56;100.00;100986.56;13028157;22;20440;-92
2022/09/18 05:59:57;;;;;;;12.25;1.23;;;;;;;9.52;100.00;101170.31;13026228;22;20049;-91
2022/09/18 06:04:58;;;;;;;9.43;1.08;;;;;;;8.43;100.00;100983.00;13021408;22;20417;-85
2022/09/18 06:09:58;;;;;;;5.95;0.85;;;;;;;8.38;100.00;100946.34;13041992;22;20026;-86
2022/09/18 06:14:59;;;;;;;11.30;1.38;;;;;;;7.89;100.00;100911.69;13018750;22;20011;-86
2022/09/18 06:20:00;;;;;;;7.82;1.05;;;;;;;7.91;100.00;100916.13;13051926;22;20521;-92
2022/09/18 06:25:01;;;;;;;9.90;1.25;;;;;;;8.09;100.00;100941.53;13053818;22;20006;-91
2022/09/18 06:30:02;;;;;;;7.93;1.60;;;;;;;8.33;100.00;100976.38;13014605;22;20069;-94
2022/09/18 06:35:02;;;;;;;4.40;1.42;;;;;;;7.65;100.00;100877.94;13046341;22;20455;-87
2022/09/18 06:40:04;;;;;;;10.60;1.98;;;;;;;7.64;100.00;100859.00;13047087;22;20006;-94
2022/09/18 06:45:05;;;;;;;7.90;0.93;;;;;;;8.11;100.00;100963.25;13018362;22;20011;-87
2022/09/18 06:50:06;;;;;;;4.97;1.05;;;;;;;9.28;100.00;101107.13;13043399;22;20349;-88
2022/09/18 06:55:07;;;;;;;10.25;2.10;;;;;;;9.47;100.00;101146.31;13043308;22;20085;-87
2022/09/18 07:00:08;;;;;;;7.80;1.15;;;;;;;8.85;100.00;101039.69;13043221;22;20294;-93
2022/09/18 07:05:09;;;;;;;8.32;0.90;;;;;;;8.55;100.00;101002.19;13023610;22;20413;-92
2022/09/18 07:10:10;;;;;;;6.97;0.90;;;;;;;8.06;100.00;100955.72;13046575;22;20015;-92
2022/09/18 07:15:10;;;;;;;7.13;1.50;;;;;;;8.70;100.00;101026.44;13045525;22;20014;-91
2022/09/18 07:20:11;;;;;;;8.85;1.20;;;;;;;8.84;100.00;101038.00;13017387;22;20030;-92
2022/09/18 07:25:12;;;;;;;7.07;0.90;;;;;;;8.63;100.00;100993.63;13018062;22;20041;-88
2022/09/18 07:30:12;;;;;;;5.90;1.05;;;;;;;8.47;100.00;100972.38;13068482;22;20026;-87
2022/09/18 07:35:13;;;;;;;8.57;1.10;;;;;;;8.60;100.00;100958.44;13013032;22;20009;-88
2022/09/18 07:40:14;;;;;;;8.27;1.13;;;;;;;8.61;100.00;100918.91;13017487;22;20009;-86
2022/09/18 07:45:14;;;;;;;13.02;1.98;;;;;;;9.37;100.00;101037.00;13066890;22;20493;-85
2022/09/18 07:50:15;;;;;;;9.68;1.23;;;;;;;9.25;100.00;101015.03;13096176;22;20038;-89
2022/09/18 07:55:18;;;;;;;9.15;1.27;;;;;;;9.18;100.00;101008.03;13107951;22;20094;-88
2022/09/18 08:00:18;;;;;;;7.45;1.25;;;;;;;8.82;100.00;100985.25;13107722;22;20025;-87
2022/09/18 08:05:19;;;;;;;12.13;2.03;;;;;;;9.17;100.00;101017.34;13106164;22;20078;-87
2022/09/18 08:10:19;;;;;;;10.32;1.35;;;;;;;8.88;100.00;100996.09;13080331;22;20344;-88
2022/09/18 08:15:20;;;;;;;9.25;1.33;;;;;;;9.19;100.00;100995.94;13106736;22;20006;-87
2022/09/18 08:20:20;;;;;;;10.18;1.42;;;;;;;8.90;100.00;100938.22;13130816;22;20018;-87
2022/09/18 08:25:22;;;;;;;10.32;1.80;;;;;;;9.06;100.00;100929.22;13105201;22;20029;-88
2022/09/18 08:30:22;;;;;;;9.10;1.20;;;;;;;8.95;100.00;100929.25;13105379;22;20026;-88
2022/09/18 08:35:22;;;;;;;8.15;1.20;;;;;;;9.83;100.00;101061.84;13080237;22;20010;-88
2022/09/18 08:40:32;;;;;;;12.00;1.52;;;;;;;10.08;100.00;101116.50;13105288;22;20328;-88
2022/09/18 08:45:59;;;;;;;10.93;2.15;;;;;;;8.78;100.00;100940.97;13130584;22;20068;-88
2022/09/18 08:51:18;;;;;;;10.88;2.20;;;;;;;9.38;100.00;101011.19;13109543;22;20017;-88
2022/09/18 08:56:21;;;;;;;11.98;1.40;;;;;;;9.25;100.00;100989.50;13081053;22;20002;-88
2022/09/18 09:01:21;;;;;;;6.15;1.10;;;;;;;8.63;100.00;100894.81;13104479;22;20005;-88
2022/09/18 09:06:34;;;;;;;8.75;1.25;;;;;;;10.07;100.00;101101.09;13080098;22;20025;-89
2022/09/18 09:12:12;;;;;;;10.45;1.65;;;;;;;10.02;100.00;101095.50;13131109;22;20025;-87
2022/09/18 09:17:36;;;;;;;5.20;0.90;;;;;;;10.01;100.00;101096.59;13158069;22;20003;-86
2022/09/18 09:22:49;;;;;;;8.73;0.90;;;;;;;10.08;100.00;101108.25;13082805;22;20007;-87
2022/09/18 09:27:59;;;;;;;4.18;1.08;;;;;;;9.44;100.00;101051.44;13131213;22;20013;-87
2022/09/18 09:33:17;;;;;;;5.65;0.90;;;;;;;9.16;100.00;100978.06;13106109;22;20033;-90
2022/09/18 09:38:47;;;;;;;12.10;1.50;;;;;;;10.34;100.00;101117.88;13109727;22;20014;-88
2022/09/18 09:44:07;;;;;;;10.00;1.10;;;;;;;9.86;100.00;101015.44;13132915;22;20378;-87
2022/09/18 09:49:37;;;;;;;7.47;1.00;;;;;;;10.57;100.00;101127.09;13085934;22;20011;-86
2022/09/18 09:54:38;;;;;;;6.55;0.88;;;;;;;9.85;100.00;100993.69;13076875;22;20332;-86
2022/09/18 09:59:46;;;;;;;12.82;0.82;;;;;;;10.14;100.00;101029.44;13109424;22;20014;-88
2022/09/18 10:05:09;;;;;;;6.25;1.23;;;;;;;10.24;100.00;101059.88;13084530;22;20007;-88
2022/09/18 10:10:15;;;;;;;8.25;1.27;;;;;;;10.68;100.00;101096.72;13085490;22;20383;-86
2022/09/18 10:15:34;;;;;;;6.28;0.90;;;;;;;10.28;100.00;101031.59;13134395;22;20006;-87
2022/09/18 10:20:35;;;;;;;10.30;1.50;;;;;;;10.79;100.00;101069.34;13112602;22;20024;-88
2022/09/18 10:25:44;;;;;;;7.30;1.15;;;;;;;10.98;100.00;101090.06;13109110;22;19995;-87
2022/09/18 10:31:14;;;;;;;12.68;1.33;;;;;;;10.35;100.00;100945.34;13109946;22;20022;-86
2022/09/18 10:36:36;;;;;;;7.45;1.80;;;;;;;11.54;100.00;101103.00;13068994;22;20006;-84
2022/09/18 10:41:38;;;;;;;5.70;1.65;;;;;;;11.49;100.00;101088.03;13109398;22;20006;-88
2022/09/18 10:46:39;;;;;;;4.05;1.13;;;;;;;10.17;100.00;100881.22;13082638;22;20018;-88
2022/09/18 10:51:40;;;;;;;8.85;1.15;;;;;;;10.93;100.00;100963.25;13107596;22;20038;-89
2022/09/18 10:56:40;;;;;;;4.15;1.00;;;;;;;11.59;100.00;101034.09;13108001;22;20306;-88
2022/09/18 11:01:41;;;;;;;6.25;1.30;;;;;;;11.28;100.00;100934.50;13133098;22;20096;-87
2022/09/18 11:06:43;;;;;;;13.48;1.80;;;;;;;10.57;100.00;100800.31;13132734;22;20026;-87
2022/09/18 11:11:44;;;;;;;6.45;1.17;;;;;;;12.38;100.00;101110.06;13106466;22;20381;-86
2022/09/18 11:16:47;;;;;;;6.75;1.58;;;;;;;11.40;100.00;100899.34;13081338;22;20010;-87
2022/09/18 11:21:53;;;;;;;9.77;1.58;;;;;;;12.25;100.00;100987.91;13082549;22;20068;-87
2022/09/18 11:26:56;;;;;;;6.45;1.08;;;;;;;12.13;100.00;101001.06;13081952;22;20017;-86
2022/09/18 11:32:16;;;;;;;9.00;2.05;;;;;;;12.55;100.00;101057.47;13081947;22;20148;-87
2022/09/18 11:37:43;;;;;;;3.65;1.00;;;;;;;12.04;100.00;100958.47;13157824;22;20440;-87
2022/09/18 11:42:45;;;;;;;6.23;1.20;;;;;;;12.97;100.00;101063.06;13108667;22;20085;-89
2022/09/18 11:47:49;;;;;;;6.80;1.02;;;;;;;12.18;100.00;100909.22;13106668;22;20037;-89
2022/09/18 11:52:53;;;;;;;4.47;1.10;;;;;;;13.29;100.00;101053.88;13106986;22;20015;-86
2022/09/18 11:58:00;;;;;;;16.23;2.28;;;;;;;11.79;100.00;100840.44;13107771;22;20066;-88
2022/09/18 12:03:07;;;;;;;5.15;0.85;;;;;;;13.10;100.00;101054.31;13107780;22;20421;-88
2022/09/18 12:08:49;;;;;;;13.45;1.25;;;;;;;13.35;100.00;101025.16;13129833;22;20339;-91
2022/09/18 12:14:01;;;;;;;8.93;0.82;;;;;;;14.00;100.00;100939.03;13131964;22;20507;-86
2022/09/18 12:19:14;;;;;;;5.05;0.80;;;;;;;14.79;100.00;100897.97;13107791;22;20002;-88
2022/09/18 12:24:15;;;;;;;6.35;1.50;;;;;;;14.16;100.00;100870.63;13089219;22;20011;-87
2022/09/18 12:29:21;;;;;;;12.15;1.10;;;;;;;14.42;100.00;100941.50;13077560;22;20075;-85
2022/09/18 12:34:28;;;;;;;5.40;1.63;;;;;;;13.86;100.00;100867.59;13132057;22;20026;-86
2022/09/18 12:40:02;;;;;;;5.72;1.13;;;;;;;14.48;100.00;100901.59;13129878;22;20500;-86
2022/09/18 12:45:03;;;;;;;8.38;2.25;;;;;;;14.96;100.00;101012.09;13108607;22;20013;-86
2022/09/18 12:50:40;;;;;;;7.47;1.20;;;;;;;15.08;100.00;100998.78;13131981;22;20029;-90
2022/09/18 12:55:45;;;;;;;6.28;0.60;;;;;;;14.92;100.00;100891.81;13130912;22;20440;-90
2022/09/18 13:00:46;;;;;;;18.13;3.60;;;;;;;14.19;98.64;100811.94;13104590;22;20038;-88
2022/09/18 13:06:08;;;;;;;5.55;0.88;;;;;;;14.47;99.80;100899.09;13081427;22;20007;-89
2022/09/18 13:11:18;;;;;;;10.70;1.80;;;;;;;14.51;96.35;100853.09;13106090;22;20045;-89
2022/09/18 13:16:36;;;;;;;12.20;1.73;;;;;;;13.86;100.00;100856.53;13091705;22;20013;-86
2022/09/18 13:21:40;;;;;;;7.82;1.40;;;;;;;12.65;100.00;100815.34;13111727;22;19998;-89
2022/09/18 13:26:41;;;;;;;4.10;1.17;;;;;;;12.38;100.00;100902.97;13065927;22;20060;-92
2022/09/18 13:31:42;;;;;;;6.18;2.08;;;;;;;11.69;100.00;100849.44;13108935;22;20046;-90
2022/09/18 13:36:44;;;;;;;7.93;1.15;;;;;;;11.86;100.00;100924.63;13109871;22;20077;-91
2022/09/18 13:41:46;;;;;;;8.68;1.08;;;;;;;11.56;100.00;100918.81;13085280;22;20006;-91
2022/09/18 13:46:48;;;;;;;5.20;0.73;;;;;;;11.86;100.00;101006.53;13083863;22;20460;-91
2022/09/18 13:51:48;;;;;;;14.50;1.67;;;;;;;11.45;100.00;100902.16;13108858;22;20014;-90
2022/09/18 13:57:13;;;;;;;7.35;1.17;;;;;;;11.80;100.00;100928.44;12979852;22;20085;-91
2022/09/18 14:02:28;;;;;;;7.15;1.15;;;;;;;10.93;100.00;100824.69;13136284;22;20003;-86
2022/09/18 14:07:31;;;;;;;6.50;1.05;;;;;;;12.31;100.00;101008.94;13083469;22;20014;-88
2022/09/18 14:12:33;;;;;;;6.45;0.80;;;;;;;10.11;100.00;100664.91;13134069;22;20025;-89
2022/09/18 14:17:34;;;;;;;9.15;1.00;;;;;;;12.16;100.00;100906.69;13108013;22;20002;-89
2022/09/18 14:22:37;;;;;;;5.25;0.80;;;;;;;13.72;100.00;100982.69;13107106;22;20009;-89
2022/09/18 14:27:54;;;;;;;10.00;1.65;;;;;;;15.53;100.00;100899.00;13135526;22;20056;-88
2022/09/18 14:33:02;;;;;;;7.22;0.90;;;;;;;16.06;100.00;100890.03;13112243;22;20490;-84
2022/09/18 14:38:15;;;;;;;6.55;1.02;;;;;;;16.75;92.73;100919.34;13162290;22;20002;-83
2022/09/18 14:43:15;;;;;;;9.85;1.80;;;;;;;17.54;90.41;100891.13;13109581;22;20036;-86
2022/09/18 14:48:20;;;;;;;8.45;1.58;;;;;;;18.19;88.15;100855.28;13083090;22;20023;-84
2022/09/18 14:53:26;;;;;;;12.38;1.73;;;;;;;17.95;89.80;100876.59;13082607;22;20010;-84
2022/09/18 14:58:31;;;;;;;6.13;0.90;;;;;;;17.88;90.26;100800.13;13100820;22;20006;-84
2022/09/18 15:03:35;;;;;;;6.82;1.48;;;;;;;14.81;98.49;100838.34;13103518;22;20002;-86
2022/09/18 15:08:36;;;;;;;6.90;1.50;;;;;;;14.11;99.55;100901.91;13102724;22;20379;-85
2022/09/18 15:13:37;;;;;;;6.97;1.08;;;;;;;12.63;100.00;100806.50;13102530;22;20006;-87
2022/09/18 15:18:40;;;;;;;8.40;1.15;;;;;;;13.41;100.00;100904.31;13087731;22;20003;-85
2022/09/18 15:23:41;;;;;;;8.48;1.20;;;;;;;13.47;100.00;100884.69;13078827;22;20005;-88
2022/09/18 15:28:43;;;;;;;10.70;1.20;;;;;;;12.64;100.00;100834.94;13103253;22;20097;-87
2022/09/18 15:33:56;;;;;;;10.00;1.63;;;;;;;13.84;100.00;100914.09;13101086;22;20313;-87
2022/09/18 15:38:56;;;;;;;4.53;0.95;;;;;;;12.72;100.00;100832.47;13099669;22;20013;-88
2022/09/18 15:43:57;;;;;;;4.88;0.80;;;;;;;11.29;100.00;100815.72;13101374;22;20006;-87
2022/09/18 15:48:59;;;;;;;10.05;1.20;;;;;;;11.39;100.00;100958.34;13075384;22;20042;-87
2022/09/18 15:53:59;;;;;;;9.45;1.27;;;;;;;11.87;100.00;101006.28;13101696;22;20428;-87
2022/09/18 15:59:02;;;;;;;8.57;1.92;;;;;;;10.84;100.00;100821.56;13128462;22;20017;-90
2022/09/18 16:04:14;;;;;;;6.13;1.10;;;;;;;10.72;100.00;100801.59;13103003;22;19998;-90
2022/09/18 16:09:33;;;;;;;14.20;1.70;;;;;;;10.87;100.00;100829.31;13102973;22;20343;-90
2022/09/18 16:14:40;;;;;;;12.65;1.48;;;;;;;11.09;100.00;100896.25;13103592;22;20006;-88
2022/09/18 16:19:42;;;;;;;7.88;1.13;;;;;;;11.32;100.00;100960.44;13102373;22;19998;-90
2022/09/18 16:24:43;;;;;;;9.57;1.25;;;;;;;11.17;100.00;100946.50;13102145;22;20371;-86
2022/09/18 16:29:43;;;;;;;12.95;1.27;;;;;;;11.39;100.00;100963.00;13074164;22;20026;-83
2022/09/18 16:34:45;;;;;;;6.82;1.25;;;;;;;11.56;100.00;100968.47;13074695;22;20014;-86
2022/09/18 16:39:46;;;;;;;4.65;1.08;;;;;;;10.78;100.00;100852.91;13107286;22;20489;-90
2022/09/18 16:44:46;;;;;;;4.97;0.98;;;;;;;9.48;100.00;100875.91;13133022;22;20007;-90
2022/09/18 16:49:48;;;;;;;5.28;0.90;;;;;;;9.49;100.00;100996.59;13062952;22;20029;-91
2022/09/18 16:54:49;;;;;;;9.35;1.17;;;;;;;9.02;100.00;100927.22;13023448;22;20329;-91
2022/09/18 16:59:49;;;;;;;8.70;0.80;;;;;;;8.60;100.00;100900.78;13049658;22;20097;-89
2022/09/18 17:04:50;;;;;;;7.43;0.93;;;;;;;7.77;100.00;100806.72;13009182;22;20050;-87
2022/09/18 17:09:50;;;;;;;7.50;1.10;;;;;;;8.45;100.00;100991.84;13017112;22;20015;-87
2022/09/18 17:14:51;;;;;;;6.30;0.93;;;;;;;8.49;100.00;100992.19;13041724;22;20006;-87
2022/09/18 17:19:51;;;;;;;10.23;1.30;;;;;;;8.26;100.00;100947.16;13017218;22;20045;-87
2022/09/18 17:24:52;;;;;;;9.10;1.63;;;;;;;8.36;100.00;100954.81;13029531;22;20290;-88
2022/09/18 17:29:52;;;;;;;18.25;1.60;;;;;;;8.16;100.00;100921.41;13043477;22;20015;-86
2022/09/18 17:34:53;;;;;;;10.52;1.52;;;;;;;7.97;100.00;100890.50;13043123;22;20014;-88
2022/09/18 17:39:54;;;;;;;12.00;2.10;;;;;;;7.82;100.00;100841.63;13024947;22;19998;-91
2022/09/18 17:44:55;;;;;;;16.98;3.42;;;;;;;8.98;100.00;101022.97;13026993;22;20029;-89
2022/09/18 17:49:56;;;;;;;17.83;1.85;;;;;;;8.20;100.00;100906.97;12811616;22;20025;-92
2022/09/18 17:54:56;;;;;;;15.73;2.95;;;;;;;8.31;100.00;100927.28;12841405;22;20009;-86
2022/09/18 17:59:57;;;;;;;9.52;1.45;;;;;;;7.73;100.00;100785.47;12852879;22;20080;-90
2022/09/18 18:04:57;;;;;;;7.05;1.67;;;;;;;8.33;100.00;100910.53;12743361;23;20079;-90
2022/09/18 18:09:58;;;;;;;11.55;1.60;;;;;;;8.78;100.00;100965.69;12849895;22;20020;-86
2022/09/18 18:14:59;;;;;;;4.80;1.10;;;;;;;8.19;100.00;100916.28;12804290;22;20009;-90
2022/09/18 18:19:59;;;;;;;7.10;0.88;;;;;;;8.23;100.00;100933.94;12833393;22;20002;-86
2022/09/18 18:25:00;;;;;;;5.55;1.30;;;;;;;8.31;100.00;100931.91;12849809;22;20009;-88
2022/09/18 18:30:00;;;;;;;8.32;1.50;;;;;;;8.76;100.00;101035.63;12851206;22;20021;-88
2022/09/18 18:35:01;;;;;;;12.00;1.73;;;;;;;9.42;100.00;101155.25;12824418;22;20544;-85
2022/09/18 18:40:02;;;;;;;11.50;1.65;;;;;;;8.34;100.00;100934.19;12806989;22;20005;-86
2022/09/18 18:45:03;;;;;;;24.95;3.33;;;;;;;8.80;100.00;101047.81;12848795;22;20037;-85
2022/09/18 18:50:05;;;;;;;22.25;2.20;;;;;;;8.92;100.00;101062.38;12732373;22;20017;-86
2022/09/18 18:55:06;;;;;;;10.02;1.30;;;;;;;8.75;100.00;101034.78;12744165;23;20335;-85
2022/09/18 19:00:07;;;;;;;9.45;0.98;;;;;;;8.82;100.00;101065.69;12732514;23;20036;-87
2022/09/18 19:05:11;;;;;;;9.57;2.17;;;;;;;7.99;100.00;100934.97;12722282;22;20024;-90
2022/09/18 19:10:11;;;;;;;14.15;2.65;;;;;;;8.61;100.00;101011.41;12710957;23;20021;-89
2022/09/18 19:15:12;;;;;;;14.80;2.13;;;;;;;8.20;100.00;100947.28;12729993;23;20005;-87
2022/09/18 19:20:13;;;;;;;21.63;3.45;;;;;;;8.84;100.00;101025.13;12790013;22;20374;-90
2022/09/18 19:25:15;;;;;;;24.05;3.63;;;;;;;9.17;100.00;101055.78;12826102;22;20419;-91
2022/09/18 19:30:15;;;;;;;20.98;2.70;;;;;;;9.29;100.00;101079.41;12744672;23;20346;-84
2022/09/18 19:35:16;;;;;;;19.15;3.28;;;;;;;8.78;100.00;101011.50;12720710;22;20008;-90
2022/09/18 19:40:16;;;;;;;27.52;4.13;;;;;;;9.12;100.00;101073.00;12847318;22;20311;-90
2022/09/18 19:45:18;;;;;;;23.80;3.10;;;;;;;8.95;100.00;101050.94;12744918;23;19997;-86
2022/09/18 19:50:31;;;;;;;17.73;2.67;;;;;;;9.38;100.00;101126.59;13018159;22;20022;-86
2022/09/18 19:55:32;;;;;;;23.80;3.60;;;;;;;9.22;100.00;101084.22;13043582;22;20425;-89
2022/09/18 20:00:33;;;;;;;28.33;4.82;;;;;;;8.48;100.00;100993.25;13017412;22;20068;-87
2022/09/18 20:05:37;;;;;;;30.42;4.35;;;;;;;9.40;100.00;101143.69;13016734;22;20492;-86
2022/09/18 20:10:38;;;;;;;31.98;5.88;;;;;;;9.29;100.00;101119.81;13010737;22;20078;-84
2022/09/18 20:15:39;;;;;;;23.15;2.85;;;;;;;9.46;100.00;101139.97;12972376;22;20511;-85
2022/09/18 20:20:40;;;;;;;31.15;3.78;;;;;;;9.08;100.00;101105.59;13037983;22;20014;-86
2022/09/18 20:25:40;;;;;;;16.17;3.50;;;;;;;9.85;100.00;101221.94;13012745;22;20030;-86
2022/09/18 20:30:41;;;;;;;22.15;3.08;;;;;;;9.52;100.00;101154.66;13010569;22;20081;-85
2022/09/18 20:35:42;;;;;;;26.35;2.78;;;;;;;8.92;100.00;101065.13;13010732;22;25071;-87
2022/09/18 20:40:43;;;;;;;22.73;2.67;;;;;;;9.18;100.00;101120.66;13013968;22;20018;-88
2022/09/18 20:45:48;;;;;;;21.85;3.13;;;;;;;8.83;100.00;101048.16;12989749;22;20452;-90
2022/09/18 20:50:49;;;;;;;17.00;2.42;;;;;;;9.02;100.00;101081.81;13041852;22;20030;-88
2022/09/18 20:55:49;;;;;;;19.40;2.78;;;;;;;9.19;100.00;101122.31;13064306;22;20014;-91
2022/09/18 21:00:53;;;;;;;30.35;3.85;;;;;;;9.56;100.00;101177.03;13040536;22;20539;-91
2022/09/18 21:05:53;;;;;;;24.25;3.00;;;;;;;9.35;100.00;101143.56;13024297;22;20460;-91
2022/09/18 21:10:54;;;;;;;18.52;3.15;;;;;;;7.67;100.00;100899.63;13015747;22;20018;-92
2022/09/18 21:15:54;;;;;;;30.83;3.72;;;;;;;9.30;100.00;101176.41;13041334;22;20010;-90
2022/09/18 21:21:08;;;;;;;17.13;3.05;;;;;;;9.38;100.00;101165.06;13041608;22;20014;-91
2022/09/18 21:26:10;;;;;;;24.27;3.58;;;;;;;9.94;100.00;101302.16;13025497;22;20137;-90
2022/09/18 21:31:11;;;;;;;20.20;2.33;;;;;;;8.71;100.00;101091.25;13013063;22;20019;-90
2022/09/18 21:36:11;;;;;;;13.30;1.92;;;;;;;8.05;100.00;100975.16;13017068;22;20313;-91
2022/09/18 21:41:13;;;;;;;27.77;2.95;;;;;;;8.90;100.00;101130.41;13019112;22;20022;-91
2022/09/18 21:46:17;;;;;;;20.50;2.35;;;;;;;8.96;100.00;101162.41;13020519;22;20018;-90
2022/09/18 21:51:18;;;;;;;17.48;2.40;;;;;;;9.51;100.00;101240.97;12996255;22;20022;-89
2022/09/18 21:56:19;;;;;;;25.10;2.70;;;;;;;8.87;100.00;101169.34;13111101;22;20006;-91
2022/09/18 22:01:21;;;;;;;22.75;3.90;;;;;;;9.52;100.00;101280.28;13109520;22;20483;-90
2022/09/18 22:06:23;;;;;;;26.25;2.85;;;;;;;8.62;100.00;101123.69;13084182;22;20056;-89
2022/09/18 22:11:25;;;;;;;19.70;3.72;;;;;;;9.26;100.00;101260.38;13083680;22;20010;-93
2022/09/18 22:16:28;;;;;;;23.50;2.40;;;;;;;8.36;100.00;101141.34;13094298;22;20027;-92
2022/09/18 22:21:30;;;;;;;19.38;2.42;;;;;;;7.69;100.00;101007.13;13028710;22;20006;-94
2022/09/18 22:26:33;;;;;;;19.67;4.88;;;;;;;8.04;100.00;101061.22;13019301;22;20006;-93
2022/09/18 22:31:34;;;;;;;19.00;2.22;;;;;;;9.65;100.00;101373.50;13035428;22;20022;-89
2022/09/18 22:36:35;;;;;;;23.20;2.55;;;;;;;9.65;100.00;101384.50;13091062;22;20003;-89
2022/09/18 22:41:36;;;;;;;16.13;2.38;;;;;;;8.37;100.00;101150.41;12954658;22;20038;-92
2022/09/18 22:46:38;;;;;;;16.27;3.00;;;;;;;8.53;100.00;101223.88;13082179;22;20064;-94
2022/09/18 22:51:39;;;;;;;22.92;2.90;;;;;;;8.62;100.00;101196.94;13019339;22;20421;-92
2022/09/18 22:56:43;;;;;;;24.58;2.60;;;;;;;8.26;100.00;101128.19;13041206;22;20003;-89
2022/09/18 23:01:47;;;;;;;27.50;2.63;;;;;;;8.28;100.00;101148.00;13019988;22;20467;-93
2022/09/18 23:06:48;;;;;;;20.67;2.38;;;;;;;9.16;100.00;101315.09;13014463;22;20002;-89